Time;durP1;ratioP1;P1;durP2;ratioP2;P2;SDS_P1;SDS_P2;PMS_P1;PMS_P2;Temp;Humidity;BMP_temperature;BMP_pressure;BME280_temperature;BME280_humidity;BME280_pressure;Samples;Min_cycle;Max_cycle;Signal;HPM_P1;HPM_P2
2023/10/16 00:02:59;;;;;;;4.40;0.90;;;4.80;99.90;;;;;;8402359;28;20300;-61
2023/10/16 00:07:00;;;;;;;1.37;0.80;;;4.80;99.90;;;;;;8407261;28;20258;-61
2023/10/16 00:11:05;;;;;;;2.17;0.80;;;4.70;99.90;;;;;;8407392;28;20207;-62
2023/10/16 00:15:07;;;;;;;3.20;1.20;;;4.70;99.90;;;;;;8405205;28;20256;-61
2023/10/16 00:19:09;;;;;;;3.37;0.90;;;4.70;99.90;;;;;;8403889;28;20180;-60
2023/10/16 00:23:13;;;;;;;6.23;1.20;;;4.70;99.90;;;;;;8405296;28;20188;-61
2023/10/16 00:27:15;;;;;;;4.33;1.00;;;4.70;99.90;;;;;;8404604;28;20212;-61
2023/10/16 00:31:20;;;;;;;2.20;1.20;;;4.70;99.90;;;;;;8407646;28;20209;-60
2023/10/16 00:35:22;;;;;;;3.83;0.87;;;4.70;99.90;;;;;;8409884;28;20177;-60
2023/10/16 00:39:28;;;;;;;2.90;1.07;;;4.60;99.90;;;;;;8406906;28;20183;-63
2023/10/16 00:43:31;;;;;;;3.40;1.03;;;4.60;99.90;;;;;;8406246;28;20184;-64
2023/10/16 00:47:32;;;;;;;1.60;0.83;;;4.60;99.90;;;;;;8408419;28;20211;-66
2023/10/16 00:51:38;;;;;;;2.43;1.00;;;4.60;99.90;;;;;;8409226;28;20189;-68
2023/10/16 00:55:40;;;;;;;3.37;1.03;;;4.50;99.90;;;;;;8410297;28;20184;-64
2023/10/16 00:59:41;;;;;;;2.67;1.10;;;4.40;99.90;;;;;;8407444;28;20238;-64
2023/10/16 01:03:44;;;;;;;4.00;0.90;;;4.30;99.90;;;;;;8408202;28;20188;-65
2023/10/16 01:07:45;;;;;;;2.03;0.90;;;4.30;99.90;;;;;;8407619;28;20208;-65
2023/10/16 01:11:46;;;;;;;1.97;0.97;;;4.10;99.90;;;;;;8403807;28;20222;-67
2023/10/16 01:15:47;;;;;;;3.33;1.37;;;4.10;99.90;;;;;;8405546;28;20187;-66
2023/10/16 01:19:48;;;;;;;2.07;1.07;;;4.00;99.90;;;;;;8408008;28;20188;-63
2023/10/16 01:23:51;;;;;;;3.77;1.30;;;4.00;99.90;;;;;;8409513;28;20260;-67
2023/10/16 01:27:51;;;;;;;4.40;1.73;;;4.00;99.90;;;;;;8403758;28;20217;-64
2023/10/16 01:31:53;;;;;;;3.03;1.27;;;4.00;99.90;;;;;;8405478;28;20264;-65
2023/10/16 01:35:54;;;;;;;1.40;1.10;;;4.10;99.90;;;;;;8405633;28;20213;-64
2023/10/16 01:40:07;;;;;;;2.30;1.10;;;4.10;99.90;;;;;;8399091;28;20186;-68
2023/10/16 01:44:12;;;;;;;4.43;1.60;;;4.00;99.90;;;;;;8393818;28;20226;-68
2023/10/16 01:48:12;;;;;;;3.63;1.53;;;4.00;99.90;;;;;;8405093;28;20211;-67
2023/10/16 01:52:13;;;;;;;8.40;1.77;;;4.00;99.90;;;;;;8406865;28;20199;-63
2023/10/16 01:56:14;;;;;;;6.47;1.20;;;3.90;99.90;;;;;;8400255;28;20420;-61
2023/10/16 02:00:24;;;;;;;2.87;1.30;;;3.90;99.90;;;;;;8409512;28;20216;-61
2023/10/16 02:04:26;;;;;;;3.53;1.00;;;3.90;99.90;;;;;;8405054;28;20265;-64
2023/10/16 02:08:26;;;;;;;3.70;1.37;;;3.80;99.90;;;;;;8405026;28;20247;-69
2023/10/16 02:12:28;;;;;;;4.57;1.10;;;3.90;99.90;;;;;;8402640;28;20215;-64
2023/10/16 02:16:31;;;;;;;2.40;1.20;;;3.90;99.90;;;;;;8402662;28;20261;-65
2023/10/16 02:20:36;;;;;;;5.43;1.40;;;3.80;99.90;;;;;;8408974;28;20523;-66
2023/10/16 02:24:37;;;;;;;2.47;1.20;;;3.80;99.90;;;;;;8397923;28;20181;-65
2023/10/16 02:28:41;;;;;;;4.60;1.40;;;3.80;99.90;;;;;;8402542;28;20219;-66
2023/10/16 02:32:42;;;;;;;1.30;1.00;;;3.80;99.90;;;;;;8410020;28;20270;-67
2023/10/16 02:36:43;;;;;;;2.37;1.57;;;3.80;99.90;;;;;;8402550;28;20180;-65
2023/10/16 02:40:44;;;;;;;5.37;1.70;;;3.80;99.90;;;;;;8404021;28;20279;-64
2023/10/16 02:44:47;;;;;;;7.07;1.60;;;3.80;99.90;;;;;;8401853;28;20184;-66
2023/10/16 02:48:48;;;;;;;3.40;1.70;;;3.80;99.90;;;;;;8402837;28;20214;-67
2023/10/16 02:52:49;;;;;;;3.87;1.63;;;3.90;99.90;;;;;;8402987;28;20194;-65
2023/10/16 02:56:50;;;;;;;4.33;1.63;;;3.80;99.90;;;;;;8405307;28;20211;-66
2023/10/16 03:00:55;;;;;;;4.63;1.20;;;3.80;99.90;;;;;;8401887;28;20208;-65
2023/10/16 03:05:10;;;;;;;5.67;1.40;;;3.80;99.90;;;;;;8400299;28;20186;-66
2023/10/16 03:09:28;;;;;;;5.60;1.37;;;3.80;99.90;;;;;;8401964;28;20223;-69
2023/10/16 03:13:29;;;;;;;7.63;1.70;;;3.70;99.90;;;;;;8395793;28;20281;-68
2023/10/16 03:21:31;;;;;;;3.30;1.40;;;3.70;99.90;;;;;;8401835;28;20186;-64
2023/10/16 03:29:42;;;;;;;1.83;1.43;;;3.70;99.90;;;;;;8399417;28;20235;-66
2023/10/16 03:33:44;;;;;;;4.60;1.37;;;3.80;99.90;;;;;;8402268;28;20292;-62
2023/10/16 03:37:46;;;;;;;5.83;1.73;;;3.80;99.90;;;;;;8398763;28;20196;-61
2023/10/16 03:41:48;;;;;;;3.23;1.40;;;3.90;99.90;;;;;;8405449;28;20199;-61
2023/10/16 03:45:49;;;;;;;2.00;1.30;;;3.80;99.90;;;;;;8401675;28;20192;-62
2023/10/16 03:49:50;;;;;;;5.43;1.40;;;3.70;99.90;;;;;;8406785;28;20218;-60
2023/10/16 03:53:56;;;;;;;2.30;1.37;;;3.60;99.90;;;;;;8404172;28;20218;-62
2023/10/16 03:58:00;;;;;;;3.70;1.13;;;3.50;99.90;;;;;;8406591;28;20210;-61
2023/10/16 04:02:04;;;;;;;2.40;1.17;;;3.40;99.90;;;;;;8404563;28;20321;-62
2023/10/16 04:06:09;;;;;;;5.47;1.20;;;3.40;99.90;;;;;;8405814;28;20272;-61
2023/10/16 04:10:22;;;;;;;3.53;1.00;;;3.30;99.90;;;;;;8411185;28;20239;-62
2023/10/16 04:14:44;;;;;;;4.40;1.33;;;3.20;99.90;;;;;;8405145;28;20238;-63
2023/10/16 04:18:46;;;;;;;2.17;1.20;;;3.20;99.90;;;;;;8405132;28;20183;-62
2023/10/16 04:22:57;;;;;;;4.27;1.50;;;3.20;99.90;;;;;;8407096;28;20293;-62
2023/10/16 04:31:43;;;;;;;5.83;1.70;;;3.20;99.90;;;;;;8404605;28;20190;-62
2023/10/16 04:52:14;;;;;;;5.23;1.60;;;3.10;99.90;;;;;;8406993;28;20198;-61
2023/10/16 04:56:41;;;;;;;5.20;1.43;;;3.10;99.90;;;;;;8406928;28;20246;-61
2023/10/16 05:14:20;;;;;;;4.27;1.37;;;3.70;99.90;;;;;;8330731;28;20239;-59
2023/10/16 06:14:45;;;;;;;5.30;1.50;;;4.90;99.90;;;;;;8399624;28;20255;-63
2023/10/16 06:18:47;;;;;;;4.03;1.60;;;4.90;99.90;;;;;;8401671;28;20191;-64
2023/10/16 06:22:51;;;;;;;2.60;1.27;;;5.00;99.90;;;;;;8399603;28;20191;-65
2023/10/16 06:26:56;;;;;;;4.60;1.70;;;5.10;99.90;;;;;;8397342;28;20594;-62
2023/10/16 06:30:56;;;;;;;5.67;1.87;;;5.10;99.90;;;;;;8401261;28;20176;-64
2023/10/16 06:34:57;;;;;;;3.80;1.10;;;5.20;99.90;;;;;;8399951;28;20232;-65
2023/10/16 06:39:06;;;;;;;6.00;1.60;;;5.30;99.90;;;;;;8398599;28;20479;-63
2023/10/16 06:43:09;;;;;;;4.33;1.60;;;5.40;99.90;;;;;;8399231;28;20199;-65
2023/10/16 06:47:12;;;;;;;5.20;1.27;;;5.40;99.90;;;;;;8399132;28;20218;-66
2023/10/16 06:51:15;;;;;;;4.77;1.60;;;5.50;99.90;;;;;;8413667;27;20185;-64
2023/10/16 06:55:17;;;;;;;3.60;1.30;;;5.50;99.90;;;;;;8399393;28;20204;-67
2023/10/16 06:59:22;;;;;;;5.17;1.37;;;5.50;99.90;;;;;;8391807;28;20212;-64
2023/10/16 07:03:23;;;;;;;1.87;1.00;;;5.40;99.90;;;;;;8396282;28;20184;-67
2023/10/16 07:07:25;;;;;;;4.97;1.50;;;5.40;99.90;;;;;;8398525;28;20327;-68
2023/10/16 07:11:27;;;;;;;3.33;1.40;;;5.50;99.90;;;;;;8398599;28;20184;-64
2023/10/16 07:15:31;;;;;;;5.73;1.57;;;5.80;99.90;;;;;;8398694;28;20227;-67
2023/10/16 07:19:32;;;;;;;3.17;1.20;;;6.20;99.90;;;;;;8399196;28;20200;-67
2023/10/16 07:23:35;;;;;;;2.77;1.27;;;6.60;99.90;;;;;;8395019;28;20192;-69
2023/10/16 07:27:36;;;;;;;4.73;1.30;;;6.80;99.90;;;;;;8396508;28;20308;-67
2023/10/16 07:31:37;;;;;;;1.90;1.00;;;6.80;95.20;;;;;;8398500;28;20184;-67
2023/10/16 07:35:38;;;;;;;5.30;1.83;;;6.70;1.00;;;;;;8398097;28;20609;-67
2023/10/16 07:39:39;;;;;;;3.83;0.93;;;6.90;99.90;;;;;;8395145;28;20198;-69
2023/10/16 07:43:45;;;;;;;4.13;1.23;;;6.90;99.90;;;;;;8398957;28;20263;-69
2023/10/16 07:47:48;;;;;;;2.70;1.10;;;7.10;99.90;;;;;;8398786;28;20212;-65
2023/10/16 07:51:52;;;;;;;7.20;1.20;;;7.20;99.90;;;;;;8395151;28;20234;-69
2023/10/16 07:55:53;;;;;;;8.43;1.57;;;7.30;99.90;;;;;;8397004;28;20421;-70
2023/10/16 07:59:54;;;;;;;3.97;1.23;;;7.30;78.00;;;;;;8398822;28;20287;-66
2023/10/16 08:03:55;;;;;;;5.67;1.77;;;7.40;30.30;;;;;;8399434;28;20200;-69
2023/10/16 08:08:00;;;;;;;5.83;1.30;;;7.50;51.30;;;;;;8394636;28;20204;-66
2023/10/16 08:12:18;;;;;;;4.13;1.10;;;7.60;34.90;;;;;;8399309;28;20289;-63
2023/10/16 08:16:24;;;;;;;4.23;1.30;;;7.80;12.50;;;;;;8398824;28;20177;-66
2023/10/16 08:20:48;;;;;;;3.63;1.20;;;7.80;1.00;;;;;;8394451;28;20230;-66
2023/10/16 08:25:01;;;;;;;2.53;0.97;;;8.10;1.00;;;;;;8401648;28;20276;-66
2023/10/16 08:33:18;;;;;;;5.33;0.90;;;8.70;1.00;;;;;;8404412;28;20181;-65
2023/10/16 08:37:22;;;;;;;3.20;1.00;;;9.10;1.00;;;;;;8419622;28;20180;-65
2023/10/16 08:41:42;;;;;;;3.77;0.93;;;9.40;1.00;;;;;;8401839;28;20216;-64
2023/10/16 08:45:49;;;;;;;2.47;0.90;;;9.50;1.00;;;;;;8401971;28;20182;-65
2023/10/16 08:49:55;;;;;;;3.13;1.00;;;9.60;1.00;;;;;;8404920;28;20217;-63
2023/10/16 08:54:00;;;;;;;3.30;0.90;;;9.70;1.00;;;;;;8401174;28;20222;-65
2023/10/16 08:58:04;;;;;;;1.60;1.03;;;9.30;1.00;;;;;;8402835;28;20286;-65
2023/10/16 09:02:07;;;;;;;1.53;0.70;;;9.20;1.00;;;;;;8400928;28;20212;-67
2023/10/16 09:06:08;;;;;;;1.90;1.20;;;9.50;1.00;;;;;;8399621;28;20191;-63
2023/10/16 09:10:12;;;;;;;3.30;1.20;;;9.90;1.00;;;;;;8402296;28;20222;-65
2023/10/16 09:14:17;;;;;;;2.80;0.80;;;10.20;1.00;;;;;;8401189;28;20183;-63
2023/10/16 09:18:18;;;;;;;3.70;1.03;;;10.50;1.00;;;;;;8400196;28;20213;-66
2023/10/16 09:22:23;;;;;;;1.23;0.70;;;10.70;1.00;;;;;;8401584;28;20200;-65
2023/10/16 09:26:25;;;;;;;4.87;1.40;;;10.60;1.00;;;;;;8401862;28;20524;-62
2023/10/16 09:30:31;;;;;;;6.13;1.10;;;10.60;1.00;;;;;;8402045;28;20216;-66
2023/10/16 09:34:34;;;;;;;3.40;0.70;;;11.00;1.00;;;;;;8399612;28;20177;-68
2023/10/16 09:38:42;;;;;;;3.03;0.97;;;11.50;1.00;;;;;;8402201;28;20188;-68
2023/10/16 09:42:45;;;;;;;5.10;1.30;;;11.70;1.00;;;;;;8402650;28;20188;-66
2023/10/16 09:50:49;;;;;;;4.20;1.00;;;11.80;1.00;;;;;;8399660;28;20329;-65
2023/10/16 09:54:54;;;;;;;3.37;0.90;;;11.40;1.00;;;;;;8400796;28;20230;-64
2023/10/16 09:58:57;;;;;;;2.17;0.60;;;11.50;1.00;;;;;;8403196;28;20261;-66
2023/10/16 10:03:06;;;;;;;5.07;1.00;;;11.40;1.00;;;;;;8392661;28;20189;-65
2023/10/16 10:07:18;;;;;;;2.10;0.70;;;10.80;1.00;;;;;;8400764;28;20231;-67
2023/10/16 10:11:38;;;;;;;2.60;1.03;;;10.70;1.00;;;;;;8401497;28;20196;-65
2023/10/16 10:15:44;;;;;;;2.70;1.03;;;10.40;1.00;;;;;;8393710;28;20578;-65
2023/10/16 10:19:46;;;;;;;5.13;1.00;;;10.20;1.00;;;;;;8415469;28;20195;-65
2023/10/16 10:23:48;;;;;;;5.17;1.07;;;9.80;1.00;;;;;;8402094;28;20194;-66
2023/10/16 10:27:49;;;;;;;3.73;1.20;;;9.50;1.00;;;;;;8392263;28;20199;-64
2023/10/16 10:31:51;;;;;;;2.80;0.80;;;9.30;1.00;;;;;;8399375;28;20237;-65
2023/10/16 10:36:30;;;;;;;3.20;0.77;;;9.30;1.00;;;;;;8398070;28;20192;-65
2023/10/16 10:40:33;;;;;;;5.40;1.00;;;9.30;1.00;;;;;;8392765;28;20187;-65
2023/10/16 10:44:53;;;;;;;7.40;0.97;;;9.40;1.00;;;;;;8398727;28;20196;-65
2023/10/16 10:48:54;;;;;;;3.43;1.00;;;9.70;1.00;;;;;;8400247;28;20218;-65
2023/10/16 10:52:55;;;;;;;2.93;0.70;;;10.00;1.00;;;;;;8399591;28;20202;-64
2023/10/16 10:57:06;;;;;;;2.97;1.03;;;10.40;1.00;;;;;;8401592;28;20215;-67
2023/10/16 11:01:26;;;;;;;2.53;0.50;;;10.50;1.00;;;;;;8401319;28;20203;-63
2023/10/16 11:05:33;;;;;;;2.70;0.70;;;10.70;1.00;;;;;;8398585;28;20256;-64
2023/10/16 11:09:37;;;;;;;1.80;0.60;;;10.60;1.00;;;;;;8399216;28;20216;-64
2023/10/16 11:13:47;;;;;;;3.97;0.70;;;10.40;1.00;;;;;;8398121;28;20189;-67
2023/10/16 11:17:48;;;;;;;1.23;0.57;;;10.40;1.00;;;;;;8396945;28;20193;-65
2023/10/16 11:21:49;;;;;;;3.43;0.77;;;10.40;1.00;;;;;;8397528;28;20613;-67
2023/10/16 11:25:52;;;;;;;0.90;0.40;;;10.40;1.00;;;;;;8397591;28;20200;-66
2023/10/16 11:29:53;;;;;;;2.67;0.60;;;10.50;1.00;;;;;;8401267;28;20222;-67
2023/10/16 11:34:01;;;;;;;2.27;0.80;;;10.40;1.00;;;;;;8399614;28;20210;-67
2023/10/16 11:38:19;;;;;;;1.87;0.63;;;10.20;1.00;;;;;;8398846;28;20190;-64
2023/10/16 11:42:20;;;;;;;1.93;0.53;;;10.30;1.00;;;;;;8399115;28;20188;-64
2023/10/16 11:46:28;;;;;;;2.80;0.60;;;10.50;1.00;;;;;;8398170;28;20244;-66
2023/10/16 11:50:41;;;;;;;2.47;0.80;;;10.50;1.00;;;;;;8397383;28;20229;-66
2023/10/16 11:54:45;;;;;;;1.70;0.83;;;10.00;1.00;;;;;;8400137;28;20251;-68
2023/10/16 11:58:47;;;;;;;4.40;0.80;;;9.80;1.00;;;;;;8400569;28;20401;-64
2023/10/16 12:02:49;;;;;;;2.27;0.63;;;9.70;1.00;;;;;;8403301;28;20517;-68
2023/10/16 12:06:51;;;;;;;0.87;0.50;;;9.60;1.00;;;;;;8405076;28;20193;-66
2023/10/16 12:10:52;;;;;;;2.97;0.70;;;9.30;1.00;;;;;;8406790;28;20182;-66
2023/10/16 12:14:53;;;;;;;2.83;0.70;;;9.30;1.00;;;;;;8402987;28;20193;-67
2023/10/16 12:18:55;;;;;;;4.03;0.80;;;9.20;1.00;;;;;;8402151;28;20195;-67
2023/10/16 12:22:58;;;;;;;3.03;1.00;;;9.30;1.00;;;;;;8407442;28;20279;-66
2023/10/16 12:27:01;;;;;;;2.93;0.80;;;9.30;1.00;;;;;;8402573;28;20190;-64
2023/10/16 12:31:03;;;;;;;3.53;0.93;;;9.40;1.00;;;;;;8401486;28;20239;-63
2023/10/16 12:35:08;;;;;;;4.30;0.70;;;9.40;1.00;;;;;;8402116;28;20184;-64
2023/10/16 12:39:24;;;;;;;3.43;0.90;;;9.50;1.00;;;;;;8403093;28;20287;-65
2023/10/16 12:43:27;;;;;;;3.73;0.73;;;9.40;1.00;;;;;;8399250;28;20206;-64
2023/10/16 12:47:28;;;;;;;2.77;1.00;;;9.50;1.00;;;;;;8401817;28;20201;-64
2023/10/16 12:51:28;;;;;;;2.70;0.70;;;9.50;1.00;;;;;;8401078;28;20187;-64
2023/10/16 12:55:29;;;;;;;2.27;0.70;;;9.50;1.00;;;;;;8398299;28;20239;-64
2023/10/16 12:59:30;;;;;;;2.33;0.63;;;9.50;1.00;;;;;;8407080;28;20207;-64
2023/10/16 13:03:33;;;;;;;2.47;1.20;;;9.40;1.00;;;;;;8399819;28;20190;-65
2023/10/16 13:07:34;;;;;;;3.30;1.30;;;9.50;1.00;;;;;;8402212;28;20537;-64
2023/10/16 13:11:35;;;;;;;5.97;1.60;;;9.50;1.00;;;;;;8400625;28;20452;-62
2023/10/16 13:15:36;;;;;;;3.60;1.30;;;9.50;1.00;;;;;;8401028;28;20176;-65
2023/10/16 13:19:36;;;;;;;2.13;1.00;;;9.40;1.00;;;;;;8401376;28;20188;-67
2023/10/16 13:23:37;;;;;;;1.80;0.70;;;9.40;1.00;;;;;;8400100;28;20195;-63
2023/10/16 13:27:39;;;;;;;3.53;0.70;;;9.20;1.00;;;;;;8401014;28;20215;-64
2023/10/16 13:31:41;;;;;;;1.70;0.70;;;9.00;1.00;;;;;;8402320;28;20193;-68
2023/10/16 13:35:42;;;;;;;2.37;0.60;;;9.00;1.00;;;;;;8400837;28;20196;-66
2023/10/16 13:39:43;;;;;;;2.00;0.70;;;9.00;1.00;;;;;;8401495;28;20192;-67
2023/10/16 13:43:44;;;;;;;1.80;0.80;;;9.30;1.00;;;;;;8400649;28;20177;-67
2023/10/16 13:47:46;;;;;;;5.23;1.90;;;9.60;1.00;;;;;;8403587;28;20505;-68
2023/10/16 13:51:48;;;;;;;2.07;0.73;;;9.80;1.00;;;;;;8398642;28;20187;-69
2023/10/16 13:55:54;;;;;;;2.27;0.90;;;10.00;1.00;;;;;;8401151;28;20223;-68
2023/10/16 13:59:55;;;;;;;2.97;0.70;;;10.10;1.00;;;;;;8401116;28;20216;-70
2023/10/16 14:03:58;;;;;;;3.90;1.00;;;10.00;1.00;;;;;;8402267;28;20195;-67
2023/10/16 14:08:00;;;;;;;3.97;1.07;;;9.90;1.00;;;;;;8411783;27;20209;-67
2023/10/16 14:12:01;;;;;;;2.17;0.90;;;9.80;1.00;;;;;;8401244;28;20306;-66
2023/10/16 14:16:11;;;;;;;4.03;0.90;;;9.60;1.00;;;;;;8399364;28;20174;-68
2023/10/16 14:20:33;;;;;;;4.03;0.97;;;9.50;1.00;;;;;;8403667;28;20189;-67
2023/10/16 14:24:34;;;;;;;1.47;0.80;;;9.20;1.00;;;;;;8395925;28;20696;-64
2023/10/16 14:28:38;;;;;;;2.03;0.70;;;9.10;1.00;;;;;;8400931;28;20226;-69
2023/10/16 14:32:39;;;;;;;1.33;0.90;;;8.70;1.00;;;;;;8398841;28;20173;-69
2023/10/16 14:36:40;;;;;;;3.63;1.03;;;8.50;1.00;;;;;;8401055;28;20449;-67
2023/10/16 14:40:42;;;;;;;1.87;0.90;;;8.40;1.00;;;;;;8397024;28;20189;-68
2023/10/16 14:44:45;;;;;;;2.30;0.83;;;8.30;1.00;;;;;;8400444;28;20184;-66
2023/10/16 14:48:45;;;;;;;1.37;1.07;;;8.30;1.00;;;;;;8397888;28;20232;-65
2023/10/16 14:52:47;;;;;;;2.80;0.60;;;8.30;1.00;;;;;;8397662;28;20200;-64
2023/10/16 14:56:49;;;;;;;1.33;0.80;;;8.30;1.00;;;;;;8406743;28;20180;-65
2023/10/16 15:00:56;;;;;;;1.70;1.00;;;8.40;1.00;;;;;;8399157;28;20219;-63
2023/10/16 15:04:57;;;;;;;4.40;0.97;;;8.40;1.00;;;;;;8398109;28;20249;-65
2023/10/16 15:08:58;;;;;;;1.73;1.10;;;8.40;1.00;;;;;;8398750;28;20386;-65
2023/10/16 15:12:59;;;;;;;1.03;0.93;;;8.30;1.00;;;;;;8397534;28;20189;-64
2023/10/16 15:17:00;;;;;;;2.50;1.10;;;8.30;1.00;;;;;;8396988;28;20177;-64
2023/10/16 15:21:01;;;;;;;1.87;0.93;;;8.20;1.00;;;;;;8396656;28;20183;-63
2023/10/16 15:25:03;;;;;;;2.90;1.00;;;8.20;5.50;;;;;;8394790;28;20194;-65
2023/10/16 15:29:04;;;;;;;2.10;1.00;;;8.10;15.80;;;;;;8395709;28;20208;-64
2023/10/16 15:33:06;;;;;;;1.80;1.00;;;7.90;31.90;;;;;;8398411;28;20180;-64
2023/10/16 15:37:08;;;;;;;2.27;0.90;;;7.70;57.70;;;;;;8403205;28;20191;-65
2023/10/16 15:41:09;;;;;;;5.53;0.97;;;7.50;92.40;;;;;;8404406;28;20415;-64
2023/10/16 15:45:12;;;;;;;3.00;1.17;;;7.40;99.90;;;;;;8405442;28;20177;-63
2023/10/16 15:49:13;;;;;;;3.83;1.33;;;7.20;99.90;;;;;;8401990;28;20212;-66
2023/10/16 15:53:14;;;;;;;1.97;1.00;;;7.10;99.90;;;;;;8399272;28;20192;-67
2023/10/16 15:57:14;;;;;;;3.43;1.10;;;6.90;99.90;;;;;;8404917;28;20181;-67
2023/10/16 16:01:15;;;;;;;3.53;1.30;;;6.80;99.90;;;;;;8402064;28;20204;-66
2023/10/16 16:05:16;;;;;;;2.03;0.90;;;6.80;99.90;;;;;;8404164;28;20176;-66
2023/10/16 16:09:19;;;;;;;1.50;0.87;;;6.70;99.90;;;;;;8401919;28;20208;-67
2023/10/16 16:13:20;;;;;;;1.57;1.00;;;6.70;99.90;;;;;;8408936;28;20466;-67
2023/10/16 16:17:23;;;;;;;1.17;0.83;;;6.80;99.90;;;;;;8403455;28;20184;-68
2023/10/16 16:21:23;;;;;;;3.07;1.17;;;6.90;99.90;;;;;;8404646;28;20181;-68
2023/10/16 16:25:25;;;;;;;2.10;0.90;;;6.90;99.90;;;;;;8403070;28;20218;-68
2023/10/16 16:29:26;;;;;;;3.63;1.30;;;6.90;99.90;;;;;;8406725;28;20211;-66
2023/10/16 16:33:29;;;;;;;6.00;3.63;;;7.00;99.90;;;;;;8406436;28;20184;-67
2023/10/16 16:37:30;;;;;;;11.43;6.60;;;7.00;99.90;;;;;;8405761;28;20189;-67
2023/10/16 16:41:31;;;;;;;11.77;7.43;;;7.10;99.90;;;;;;8403247;28;20180;-67
2023/10/16 16:45:32;;;;;;;11.17;6.33;;;7.10;1.00;;;;;;8404229;28;20318;-67
2023/10/16 16:49:33;;;;;;;6.90;3.50;;;7.10;1.00;;;;;;8407329;28;20211;-66
2023/10/16 16:53:34;;;;;;;4.03;2.33;;;7.10;99.90;;;;;;8403894;28;20254;-67
2023/10/16 16:57:35;;;;;;;3.73;2.13;;;7.00;99.90;;;;;;8406869;28;20188;-67
2023/10/16 17:01:36;;;;;;;2.50;2.30;;;7.00;99.90;;;;;;8397505;28;20265;-68
2023/10/16 17:05:37;;;;;;;3.03;2.00;;;6.80;99.90;;;;;;8405837;28;20184;-65
2023/10/16 17:09:38;;;;;;;2.67;1.93;;;6.70;99.90;;;;;;8402704;28;20211;-66
2023/10/16 17:13:39;;;;;;;2.93;1.63;;;6.50;1.00;;;;;;8406033;28;20560;-62
2023/10/16 17:17:41;;;;;;;1.97;1.30;;;6.50;66.40;;;;;;8398955;28;20810;-63
2023/10/16 17:21:43;;;;;;;1.93;1.20;;;6.30;99.90;;;;;;8403608;28;20215;-67
2023/10/16 17:25:45;;;;;;;3.07;1.40;;;6.10;35.50;;;;;;8400520;28;20184;-64
2023/10/16 17:29:48;;;;;;;1.50;1.30;;;6.00;99.90;;;;;;8405446;28;20223;-68
2023/10/16 17:33:49;;;;;;;3.57;1.47;;;5.80;99.90;;;;;;8398983;28;20184;-63
2023/10/16 17:37:51;;;;;;;2.63;1.40;;;5.70;99.90;;;;;;8396083;28;20188;-62
2023/10/16 17:41:52;;;;;;;1.83;1.50;;;5.60;99.90;;;;;;8399495;28;20661;-62
2023/10/16 17:45:55;;;;;;;1.97;1.40;;;5.60;99.90;;;;;;8399199;28;20181;-61
2023/10/16 17:49:56;;;;;;;2.13;1.30;;;5.50;99.90;;;;;;8398933;28;20203;-59
2023/10/16 17:53:58;;;;;;;1.67;1.57;;;5.50;1.00;;;;;;8402464;28;20530;-60
2023/10/16 17:58:00;;;;;;;2.87;1.80;;;5.50;1.00;;;;;;8405672;28;20189;-60
2023/10/16 18:02:02;;;;;;;3.67;1.50;;;5.40;1.00;;;;;;8400524;28;20229;-59
2023/10/16 18:06:05;;;;;;;2.40;1.77;;;5.30;99.90;;;;;;8400022;28;20207;-61
2023/10/16 18:10:09;;;;;;;2.20;1.67;;;5.30;99.90;;;;;;8400823;28;20208;-59
2023/10/16 18:14:10;;;;;;;3.10;1.80;;;5.30;1.00;;;;;;8401479;28;20223;-61
2023/10/16 18:18:11;;;;;;;2.37;2.07;;;5.20;1.00;;;;;;8400452;28;20191;-61
2023/10/16 18:22:14;;;;;;;2.77;2.30;;;5.20;99.90;;;;;;8399297;28;20184;-62
2023/10/16 18:26:18;;;;;;;3.73;2.20;;;5.20;1.00;;;;;;8402223;28;20257;-61
2023/10/16 18:30:19;;;;;;;2.60;2.40;;;5.30;99.90;;;;;;8398578;28;20231;-58
2023/10/16 18:34:21;;;;;;;3.87;2.60;;;5.40;99.90;;;;;;8399753;28;20248;-59
2023/10/16 18:38:23;;;;;;;5.23;2.40;;;5.40;99.90;;;;;;8396982;28;20185;-59
2023/10/16 18:42:24;;;;;;;3.30;3.00;;;5.50;99.90;;;;;;8400387;28;20192;-62
2023/10/16 18:46:25;;;;;;;4.53;3.73;;;5.60;99.90;;;;;;8398492;28;20200;-60
2023/10/16 18:50:26;;;;;;;6.70;4.23;;;5.70;99.90;;;;;;8400315;28;20212;-61
2023/10/16 18:54:27;;;;;;;5.93;4.47;;;5.80;99.90;;;;;;8398823;28;20196;-61
2023/10/16 18:58:28;;;;;;;5.30;4.33;;;5.80;99.90;;;;;;8401253;28;20215;-63
2023/10/16 19:02:29;;;;;;;11.00;4.43;;;5.90;99.90;;;;;;8397132;28;20182;-63
2023/10/16 19:06:32;;;;;;;8.63;4.67;;;5.90;99.90;;;;;;8399950;28;20191;-61
2023/10/16 19:10:34;;;;;;;5.77;4.03;;;6.00;99.90;;;;;;8396164;28;20213;-60
2023/10/16 19:14:35;;;;;;;7.30;5.20;;;6.10;99.90;;;;;;8396085;28;20173;-62
2023/10/16 19:18:39;;;;;;;7.63;5.20;;;6.10;99.90;;;;;;8395941;28;20187;-62
2023/10/16 19:22:43;;;;;;;9.07;5.73;;;6.20;99.90;;;;;;8402179;28;20268;-60
2023/10/16 19:26:45;;;;;;;9.73;5.50;;;6.20;99.90;;;;;;8410048;28;20180;-62
2023/10/16 19:30:46;;;;;;;9.93;5.40;;;6.30;99.90;;;;;;8397206;28;20291;-61
2023/10/16 19:34:48;;;;;;;6.53;4.63;;;6.30;99.90;;;;;;8397778;28;20227;-61
2023/10/16 19:38:49;;;;;;;9.90;4.87;;;6.30;99.90;;;;;;8397600;28;20447;-63
2023/10/16 19:42:51;;;;;;;7.47;5.27;;;6.30;99.90;;;;;;8400784;28;20184;-63
2023/10/16 19:46:52;;;;;;;5.90;4.70;;;6.30;99.90;;;;;;8398150;28;20185;-62
2023/10/16 19:50:52;;;;;;;7.87;5.73;;;6.40;99.90;;;;;;8397891;28;20653;-62
2023/10/16 19:54:53;;;;;;;6.93;4.83;;;6.40;99.90;;;;;;8400868;28;20197;-65
2023/10/16 19:58:56;;;;;;;7.03;4.30;;;6.40;99.90;;;;;;8404556;28;20212;-68
2023/10/16 20:02:56;;;;;;;6.37;4.23;;;6.40;99.90;;;;;;8404345;28;20295;-66
2023/10/16 20:06:58;;;;;;;6.83;4.00;;;6.30;99.90;;;;;;8404428;28;20230;-66
2023/10/16 20:11:01;;;;;;;7.20;4.20;;;6.40;99.90;;;;;;8401963;28;20326;-67
2023/10/16 20:15:02;;;;;;;5.90;3.93;;;6.30;99.90;;;;;;8400273;28;20216;-67
2023/10/16 20:19:07;;;;;;;6.60;3.63;;;6.30;99.90;;;;;;8404977;28;20215;-66
2023/10/16 20:23:11;;;;;;;5.70;3.47;;;6.20;99.90;;;;;;8417607;28;20207;-67
2023/10/16 20:27:12;;;;;;;4.33;3.20;;;6.10;99.90;;;;;;8415516;28;20229;-66
2023/10/16 20:31:17;;;;;;;4.80;2.80;;;5.90;99.90;;;;;;8410936;28;20228;-66
2023/10/16 20:35:18;;;;;;;5.07;2.83;;;5.70;99.90;;;;;;8408809;28;20165;-67
2023/10/16 20:39:26;;;;;;;3.80;2.93;;;5.50;99.90;;;;;;8401211;28;20212;-65
2023/10/16 20:43:31;;;;;;;4.57;3.33;;;5.30;99.90;;;;;;8409455;28;20180;-65
2023/10/16 20:47:33;;;;;;;4.70;3.87;;;5.20;99.90;;;;;;8408552;28;20212;-66
2023/10/16 20:51:35;;;;;;;5.17;3.37;;;5.20;99.90;;;;;;8403687;28;20212;-66
2023/10/16 20:55:41;;;;;;;4.33;3.50;;;5.20;99.90;;;;;;8409032;28;20498;-66
2023/10/16 20:59:44;;;;;;;5.67;4.10;;;5.30;99.90;;;;;;8403711;28;20370;-67
2023/10/16 21:03:45;;;;;;;5.93;3.90;;;5.40;99.90;;;;;;8403997;28;20181;-60
2023/10/16 21:07:49;;;;;;;4.97;3.93;;;5.50;99.90;;;;;;8404982;28;20290;-61
2023/10/16 21:11:50;;;;;;;5.07;3.87;;;5.60;99.90;;;;;;8406448;28;20200;-61
2023/10/16 21:15:51;;;;;;;5.03;4.20;;;5.60;99.90;;;;;;8401950;28;20247;-63
2023/10/16 21:19:52;;;;;;;4.67;4.00;;;5.70;99.90;;;;;;8402637;28;20195;-61
2023/10/16 21:23:53;;;;;;;5.60;4.67;;;5.80;99.90;;;;;;8402300;28;20185;-62
2023/10/16 21:27:54;;;;;;;5.03;4.10;;;5.80;99.90;;;;;;8403803;28;20212;-61
2023/10/16 21:31:55;;;;;;;5.93;4.20;;;5.90;99.90;;;;;;8398674;28;20188;-60
2023/10/16 21:36:09;;;;;;;6.63;4.80;;;5.90;99.90;;;;;;8421918;27;20195;-60
2023/10/16 21:40:11;;;;;;;8.27;5.60;;;5.90;99.90;;;;;;8396588;28;20181;-61
2023/10/16 21:44:11;;;;;;;6.90;4.97;;;6.00;99.90;;;;;;8400883;28;20223;-63
2023/10/16 21:48:12;;;;;;;8.43;5.73;;;6.10;99.90;;;;;;8400685;28;20651;-62
2023/10/16 21:52:14;;;;;;;8.10;6.40;;;6.10;99.90;;;;;;8400381;28;20250;-60
2023/10/16 21:56:16;;;;;;;9.33;6.80;;;6.20;99.90;;;;;;8403324;28;20365;-60
2023/10/16 22:00:31;;;;;;;11.60;6.57;;;6.30;99.90;;;;;;8399293;28;20265;-60
2023/10/16 22:04:32;;;;;;;8.60;6.50;;;6.30;99.90;;;;;;8400446;28;20190;-63
2023/10/16 22:08:33;;;;;;;11.53;7.10;;;6.30;99.90;;;;;;8400902;28;20201;-61
2023/10/16 22:12:34;;;;;;;10.10;6.77;;;6.30;99.90;;;;;;8391458;28;20230;-60
2023/10/16 22:16:36;;;;;;;11.57;7.20;;;6.30;99.90;;;;;;8400565;28;20244;-63
2023/10/16 22:20:37;;;;;;;9.40;7.30;;;6.40;99.90;;;;;;8397061;28;20188;-63
2023/10/16 22:24:38;;;;;;;10.13;6.50;;;6.40;99.90;;;;;;8400269;28;20203;-63
2023/10/16 22:28:39;;;;;;;8.50;6.73;;;6.40;99.90;;;;;;8400681;28;20204;-63
2023/10/16 22:32:40;;;;;;;8.20;6.73;;;6.30;99.90;;;;;;8401928;28;20222;-67
2023/10/16 22:36:41;;;;;;;8.57;6.83;;;6.20;99.90;;;;;;8404750;28;20283;-66
2023/10/16 22:40:42;;;;;;;8.30;6.67;;;6.20;99.90;;;;;;8418960;28;20188;-68
2023/10/16 22:44:44;;;;;;;8.17;6.43;;;6.20;99.90;;;;;;8405201;28;20381;-69
2023/10/16 22:48:45;;;;;;;12.67;7.57;;;6.20;99.90;;;;;;8395251;28;20216;-68
2023/10/16 22:52:46;;;;;;;7.77;6.17;;;6.30;99.90;;;;;;8402818;28;20193;-67
2023/10/16 22:56:47;;;;;;;8.73;6.97;;;6.20;99.90;;;;;;8405136;28;20259;-68
2023/10/16 23:00:48;;;;;;;6.80;5.40;;;6.20;99.90;;;;;;8405300;28;20215;-68
2023/10/16 23:04:48;;;;;;;6.03;5.43;;;6.10;99.90;;;;;;8403520;28;20262;-67
2023/10/16 23:08:52;;;;;;;6.13;5.30;;;6.10;99.90;;;;;;8403764;28;20208;-66
2023/10/16 23:12:56;;;;;;;5.80;5.20;;;6.00;99.90;;;;;;8401496;28;20199;-67
2023/10/16 23:17:00;;;;;;;5.67;5.17;;;5.90;99.90;;;;;;8418481;28;20181;-68